Time;durP1;ratioP1;P1;durP2;ratioP2;P2;SDS_P1;SDS_P2;PMS_P1;PMS_P2;Temp;Humidity;BMP_temperature;BMP_pressure;BME280_temperature;BME280_humidity;BME280_pressure;Samples;Min_cycle;Max_cycle;Signal;HPM_P1;HPM_P2
2024/01/19 00:02:23;;;;;;;0.98;0.70;;;;;;;17.55;48.63;101324.66;5038370;28;20033;-42
2024/01/19 00:04:48;;;;;;;0.55;0.50;;;;;;;17.56;48.70;101329.97;5040902;28;20040;-44
2024/01/19 00:07:14;;;;;;;1.38;0.35;;;;;;;17.63;48.40;101326.19;5041214;28;20044;-42
2024/01/19 00:09:40;;;;;;;0.63;0.50;;;;;;;17.64;48.43;101329.75;5040429;28;20513;-44
2024/01/19 00:12:05;;;;;;;0.45;0.32;;;;;;;17.62;48.38;101336.91;5046094;28;20029;-43
2024/01/19 00:14:31;;;;;;;2.13;0.63;;;;;;;17.62;48.45;101342.25;5043054;28;20112;-42
2024/01/19 00:16:56;;;;;;;0.77;0.50;;;;;;;17.59;48.43;101335.19;5046092;28;20040;-43
2024/01/19 00:19:21;;;;;;;0.22;0.22;;;;;;;17.60;48.51;101338.75;5039475;28;20079;-42
2024/01/19 00:21:47;;;;;;;1.63;0.50;;;;;;;17.55;48.76;101341.53;5045616;28;20474;-46
2024/01/19 00:24:13;;;;;;;0.52;0.40;;;;;;;17.56;48.33;101337.97;5044196;28;20013;-42
2024/01/19 00:26:38;;;;;;;1.83;0.68;;;;;;;17.53;48.47;101342.53;5046824;28;20033;-41
2024/01/19 00:29:04;;;;;;;1.05;0.50;;;;;;;17.52;48.86;101340.75;5044159;28;20032;-43
2024/01/19 00:31:30;;;;;;;0.50;0.50;;;;;;;17.46;48.61;101342.69;5045175;28;20095;-42
2024/01/19 00:33:56;;;;;;;0.63;0.50;;;;;;;17.50;48.40;101339.00;5043351;28;20021;-45
2024/01/19 00:36:22;;;;;;;1.60;0.43;;;;;;;17.50;48.84;101339.00;5045898;28;20474;-42
2024/01/19 00:38:47;;;;;;;0.45;0.45;;;;;;;17.46;48.79;101334.66;5045320;28;20121;-42
2024/01/19 00:41:13;;;;;;;0.47;0.43;;;;;;;17.41;48.98;101333.94;5043914;28;20032;-45
2024/01/19 00:43:38;;;;;;;1.90;0.50;;;;;;;17.38;49.02;101344.72;5039391;28;20516;-43
2024/01/19 00:46:04;;;;;;;0.90;0.45;;;;;;;17.38;48.69;101346.50;5045141;28;20121;-44
2024/01/19 00:48:29;;;;;;;3.20;0.90;;;;;;;17.34;48.68;101348.38;5042754;28;20025;-42
2024/01/19 00:50:55;;;;;;;1.30;0.40;;;;;;;17.32;48.89;101352.91;5045410;28;20472;-42
2024/01/19 00:53:20;;;;;;;1.65;0.68;;;;;;;17.28;48.81;101352.09;5043119;28;20081;-47
2024/01/19 00:55:46;;;;;;;0.70;0.40;;;;;;;17.24;49.10;101353.09;5044822;28;20093;-45
2024/01/19 00:58:11;;;;;;;0.73;0.50;;;;;;;17.25;48.97;101349.50;5041574;28;20048;-44
2024/01/19 01:00:37;;;;;;;0.77;0.40;;;;;;;17.27;48.90;101353.00;5031507;28;20048;-44
2024/01/19 01:03:03;;;;;;;0.52;0.35;;;;;;;17.26;48.80;101364.59;5038131;28;20027;-44
2024/01/19 01:05:28;;;;;;;1.27;0.50;;;;;;;17.25;48.81;101360.19;5039960;28;20033;-44
2024/01/19 01:07:53;;;;;;;0.82;0.43;;;;;;;17.26;48.79;101361.06;5043041;28;20543;-44
2024/01/19 01:10:19;;;;;;;1.25;0.40;;;;;;;17.22;49.14;101370.97;5068864;28;20548;-43
2024/01/19 01:12:44;;;;;;;4.75;0.60;;;;;;;17.20;48.63;101368.31;5039303;28;20477;-43
2024/01/19 01:15:10;;;;;;;1.60;0.68;;;;;;;17.22;48.80;101371.81;5035130;28;20208;-42
2024/01/19 01:17:35;;;;;;;1.73;0.50;;;;;;;17.18;48.85;101370.16;5045181;28;20691;-43
2024/01/19 01:20:00;;;;;;;1.88;0.70;;;;;;;17.21;48.69;101375.41;5039137;28;20029;-44
2024/01/19 01:22:26;;;;;;;1.05;0.50;;;;;;;17.19;49.06;101384.38;5044816;28;20040;-45
2024/01/19 01:24:52;;;;;;;1.05;0.52;;;;;;;17.20;48.67;101379.00;5045138;28;20339;-43
2024/01/19 01:27:17;;;;;;;1.55;0.65;;;;;;;17.17;49.16;101371.06;5042686;28;20037;-46
2024/01/19 01:29:42;;;;;;;1.67;0.80;;;;;;;17.14;48.82;101379.19;5044376;28;20023;-45
2024/01/19 01:32:08;;;;;;;1.67;0.65;;;;;;;17.13;48.75;101377.41;5044068;28;20446;-45
2024/01/19 01:34:33;;;;;;;3.47;0.60;;;;;;;17.12;48.82;101366.78;5044076;28;20116;-45
2024/01/19 01:36:59;;;;;;;3.80;0.50;;;;;;;17.12;48.91;101380.13;5041290;28;20055;-47
2024/01/19 01:39:25;;;;;;;1.45;0.55;;;;;;;17.08;49.08;101374.84;5041828;28;20059;-43
2024/01/19 01:41:51;;;;;;;0.93;0.50;;;;;;;17.08;48.99;101376.66;5039603;28;20488;-43
2024/01/19 01:44:16;;;;;;;1.48;0.50;;;;;;;17.09;49.00;101389.94;5044934;28;20021;-45
2024/01/19 01:46:42;;;;;;;0.98;0.50;;;;;;;17.07;48.93;101386.47;5043946;28;20491;-44
2024/01/19 01:49:09;;;;;;;1.10;0.65;;;;;;;17.06;49.08;101397.16;5041052;28;20032;-45
2024/01/19 01:51:34;;;;;;;1.50;0.40;;;;;;;17.09;48.80;101408.63;5042359;28;20063;-43
2024/01/19 01:54:00;;;;;;;1.77;0.82;;;;;;;17.10;48.70;101409.53;5044920;28;20029;-46
2024/01/19 01:56:27;;;;;;;0.50;0.50;;;;;;;17.12;48.64;101410.34;5040074;28;20029;-41
2024/01/19 01:58:53;;;;;;;1.80;0.68;;;;;;;17.17;48.53;101402.25;5036131;28;20030;-42
2024/01/19 02:01:18;;;;;;;2.15;0.60;;;;;;;17.13;48.89;101404.09;5038476;28;20044;-40
2024/01/19 02:03:44;;;;;;;0.85;0.47;;;;;;;17.13;48.78;101406.75;5034136;28;20033;-43
2024/01/19 02:06:10;;;;;;;1.25;0.43;;;;;;;17.12;48.96;101418.34;5063353;28;20020;-45
2024/01/19 02:08:35;;;;;;;2.40;0.63;;;;;;;17.08;48.55;101416.69;5041000;28;20174;-45
2024/01/19 02:11:01;;;;;;;2.17;0.90;;;;;;;17.07;48.62;101412.25;5042093;28;20382;-43
2024/01/19 02:13:26;;;;;;;1.33;0.60;;;;;;;17.08;49.00;101414.88;5040909;28;20024;-44
2024/01/19 02:15:52;;;;;;;1.50;0.70;;;;;;;17.08;48.79;101424.72;5040668;28;20056;-44
2024/01/19 02:18:17;;;;;;;2.90;0.80;;;;;;;17.11;48.66;101419.28;5043955;28;20159;-44
2024/01/19 02:20:42;;;;;;;2.15;0.60;;;;;;;17.10;48.72;101422.88;5037612;28;20021;-44
2024/01/19 02:23:13;;;;;;;2.97;0.70;;;;;;;17.09;48.52;101429.13;5040349;28;20116;-45
2024/01/19 02:25:38;;;;;;;1.67;0.82;;;;;;;17.10;48.59;101425.53;5041659;28;20025;-43
2024/01/19 02:28:04;;;;;;;1.70;0.88;;;;;;;17.06;48.40;101424.75;5029362;28;20040;-42
2024/01/19 02:30:30;;;;;;;1.17;0.60;;;;;;;17.05;48.47;101436.34;5031076;28;20040;-43
2024/01/19 02:32:55;;;;;;;1.85;0.60;;;;;;;17.03;48.84;101434.63;5026817;28;20033;-45
2024/01/19 02:35:21;;;;;;;2.88;0.60;;;;;;;17.04;48.70;101439.91;5037631;28;20033;-45
2024/01/19 02:37:46;;;;;;;1.63;0.50;;;;;;;17.03;48.71;101437.28;5038125;28;20028;-44
2024/01/19 02:40:12;;;;;;;1.83;1.08;;;;;;;17.04;48.76;101439.03;5028890;28;20045;-46
2024/01/19 02:42:37;;;;;;;2.42;0.80;;;;;;;17.05;48.60;101438.13;5043068;28;20359;-45
2024/01/19 02:45:03;;;;;;;3.42;0.52;;;;;;;17.03;48.53;101445.28;5037819;28;20451;-43
2024/01/19 02:47:28;;;;;;;1.33;0.70;;;;;;;17.04;48.44;101447.03;5040103;28;20028;-46
2024/01/19 02:49:54;;;;;;;1.95;1.30;;;;;;;17.02;48.57;101443.47;5038589;28;20033;-44
2024/01/19 02:52:19;;;;;;;1.85;0.52;;;;;;;17.00;48.65;101458.66;5039807;28;20040;-43
2024/01/19 02:54:44;;;;;;;1.15;0.57;;;;;;;17.03;48.84;101454.16;5041183;28;20051;-42
2024/01/19 02:57:10;;;;;;;2.53;0.85;;;;;;;17.00;48.33;101459.56;5036591;28;20288;-46
2024/01/19 02:59:35;;;;;;;1.45;0.50;;;;;;;16.99;48.54;101462.25;5040840;28;20025;-42
2024/01/19 03:02:01;;;;;;;2.45;1.17;;;;;;;17.00;48.64;101462.22;5040604;28;20719;-45
2024/01/19 03:04:26;;;;;;;1.50;0.82;;;;;;;16.98;48.79;101463.19;5038353;28;20111;-42
2024/01/19 03:06:52;;;;;;;2.00;0.88;;;;;;;16.94;48.67;101468.56;5039140;28;20033;-43
2024/01/19 03:09:17;;;;;;;1.17;0.50;;;;;;;16.94;48.63;101467.72;5042742;28;20021;-45
2024/01/19 03:11:43;;;;;;;2.95;0.80;;;;;;;16.94;48.60;101473.91;5039797;28;20013;-42
2024/01/19 03:14:09;;;;;;;1.45;0.70;;;;;;;16.96;48.92;101474.75;5039616;28;20041;-43
2024/01/19 03:16:40;;;;;;;1.70;0.90;;;;;;;16.94;48.86;101479.25;5029188;28;20494;-44
2024/01/19 03:19:05;;;;;;;2.67;0.70;;;;;;;16.90;48.69;101474.88;5066126;28;20026;-43
2024/01/19 03:21:31;;;;;;;2.28;0.80;;;;;;;16.88;48.81;101478.50;5026301;28;20033;-44
2024/01/19 03:23:56;;;;;;;3.85;1.00;;;;;;;16.91;48.76;101479.34;5040678;28;20029;-42
2024/01/19 03:26:21;;;;;;;1.75;0.98;;;;;;;16.87;48.63;101477.66;5039751;28;20064;-44
2024/01/19 03:28:47;;;;;;;2.60;0.70;;;;;;;16.87;48.67;101471.41;5034446;28;20068;-42
2024/01/19 03:31:12;;;;;;;2.35;0.98;;;;;;;16.87;48.53;101477.66;5040841;28;20021;-44
2024/01/19 03:33:38;;;;;;;1.13;0.90;;;;;;;16.75;48.87;101480.59;5033869;28;20122;-44
2024/01/19 03:36:03;;;;;;;1.25;0.75;;;;;;;16.76;49.00;101482.34;5026634;28;20064;-43
2024/01/19 03:38:29;;;;;;;3.13;0.80;;;;;;;16.73;49.17;101480.63;5034902;28;20025;-42
2024/01/19 03:40:54;;;;;;;2.33;0.88;;;;;;;16.68;48.97;101483.41;5041398;28;20020;-41
2024/01/19 03:43:20;;;;;;;1.63;0.65;;;;;;;16.71;49.12;101482.44;5041261;28;20048;-42
2024/01/19 03:45:45;;;;;;;2.55;0.88;;;;;;;16.70;48.77;101483.38;5036851;28;20536;-42
2024/01/19 03:48:10;;;;;;;1.85;0.90;;;;;;;16.67;49.34;101483.44;5040550;28;20039;-43
2024/01/19 03:50:36;;;;;;;1.60;0.65;;;;;;;16.69;49.21;101490.50;5037857;28;20048;-42
2024/01/19 03:53:02;;;;;;;2.28;1.58;;;;;;;16.69;49.12;101487.84;5042512;28;20120;-43
2024/01/19 03:55:27;;;;;;;2.35;0.70;;;;;;;16.68;48.80;101491.38;5040048;28;20071;-44
2024/01/19 03:57:52;;;;;;;1.10;0.63;;;;;;;16.65;49.07;101491.47;5038782;28;20036;-44
2024/01/19 04:00:18;;;;;;;3.28;1.20;;;;;;;16.65;48.91;101496.81;5041582;28;20170;-42
2024/01/19 04:02:43;;;;;;;1.35;0.77;;;;;;;16.65;49.03;101491.47;5030929;28;20029;-43
2024/01/19 04:05:09;;;;;;;1.30;0.60;;;;;;;16.63;49.30;101495.97;5041540;28;20056;-42
2024/01/19 04:07:34;;;;;;;2.15;0.73;;;;;;;16.62;49.04;101496.00;5031718;28;20308;-40
2024/01/19 04:09:59;;;;;;;2.20;0.80;;;;;;;16.60;49.45;101504.03;5040597;28;20059;-41
2024/01/19 04:12:25;;;;;;;3.33;0.63;;;;;;;16.61;49.03;101508.44;5032836;28;20052;-42
2024/01/19 04:14:50;;;;;;;1.88;0.60;;;;;;;16.63;49.06;101522.66;5042334;28;20034;-43
2024/01/19 04:17:15;;;;;;;1.33;0.70;;;;;;;16.64;49.07;101550.19;5031011;28;20078;-40
2024/01/19 04:19:41;;;;;;;1.67;0.70;;;;;;;16.65;49.19;101542.16;5041154;28;20032;-41
2024/01/19 04:22:06;;;;;;;3.10;1.00;;;;;;;16.68;48.99;101552.75;5041298;28;20029;-42
2024/01/19 04:24:32;;;;;;;3.15;0.95;;;;;;;16.69;48.92;101554.53;5041685;28;20033;-42
2024/01/19 04:26:57;;;;;;;1.40;0.65;;;;;;;16.67;49.32;101564.31;5042908;28;20111;-42
2024/01/19 04:29:22;;;;;;;1.73;0.70;;;;;;;16.69;49.55;101574.97;5040044;28;20129;-42
2024/01/19 04:31:48;;;;;;;2.45;0.80;;;;;;;16.69;49.33;101569.63;5035285;28;20025;-42
2024/01/19 04:34:14;;;;;;;3.20;0.90;;;;;;;16.67;49.29;101575.00;5041878;28;20501;-46
2024/01/19 04:36:39;;;;;;;2.10;0.77;;;;;;;16.69;49.12;101567.84;5031238;28;20036;-48
2024/01/19 04:39:04;;;;;;;2.05;0.82;;;;;;;16.67;49.04;101577.66;5041104;28;20105;-46
2024/01/19 04:41:30;;;;;;;1.42;0.68;;;;;;;16.64;49.26;101574.19;5040770;28;20036;-44
2024/01/19 04:43:55;;;;;;;1.70;0.73;;;;;;;16.64;49.47;101575.06;5042468;28;20103;-45
2024/01/19 04:46:20;;;;;;;1.00;0.57;;;;;;;16.65;49.54;101578.59;5039199;28;20382;-44
2024/01/19 04:48:46;;;;;;;0.90;0.50;;;;;;;16.62;49.64;101579.53;5038028;28;20471;-44
2024/01/19 04:51:11;;;;;;;1.30;0.63;;;;;;;16.67;49.46;101582.13;5039826;28;20059;-43
2024/01/19 04:53:37;;;;;;;0.45;0.35;;;;;;;16.77;49.35;101585.47;5037167;28;20078;-44
2024/01/19 04:56:06;;;;;;;2.28;1.20;;;;;;;16.88;49.41;101582.56;5044197;28;20025;-43
2024/01/19 04:58:35;;;;;;;0.83;0.50;;;;;;;16.96;49.33;101581.47;5046440;28;20040;-44
2024/01/19 05:01:01;;;;;;;2.90;0.60;;;;;;;17.03;49.49;101584.94;5044996;28;20040;-44
2024/01/19 05:03:26;;;;;;;1.02;0.52;;;;;;;17.15;49.24;101593.56;5045324;28;20033;-45
2024/01/19 05:05:52;;;;;;;0.75;0.35;;;;;;;17.24;49.14;101598.69;5044347;28;20029;-43
2024/01/19 05:08:17;;;;;;;0.77;0.47;;;;;;;17.35;49.20;101595.75;5041934;28;20021;-43
2024/01/19 05:10:43;;;;;;;1.30;0.60;;;;;;;17.44;49.12;101608.91;5037976;28;20132;-43
2024/01/19 05:13:08;;;;;;;0.82;0.38;;;;;;;17.50;49.01;101616.75;5045071;28;20029;-44
2024/01/19 05:15:33;;;;;;;0.70;0.45;;;;;;;17.60;49.18;101612.06;5041867;28;20029;-45
2024/01/19 05:18:00;;;;;;;0.93;0.40;;;;;;;17.71;48.95;101611.81;5038649;28;20032;-45
2024/01/19 05:20:26;;;;;;;3.22;0.73;;;;;;;17.82;48.99;101621.34;5044489;28;20367;-41
2024/01/19 05:22:51;;;;;;;1.85;0.50;;;;;;;17.89;49.03;101626.50;5044641;28;20029;-40
2024/01/19 05:25:18;;;;;;;0.70;0.70;;;;;;;17.96;48.90;101623.66;5043108;28;20029;-42
2024/01/19 05:27:44;;;;;;;3.05;0.45;;;;;;;18.02;48.85;101627.03;5041087;28;20040;-44
2024/01/19 05:30:10;;;;;;;1.92;0.70;;;;;;;18.13;48.80;101637.50;5041457;28;20026;-47
2024/01/19 05:32:35;;;;;;;2.80;0.60;;;;;;;18.16;48.90;101634.72;5043031;28;20037;-46
2024/01/19 05:35:01;;;;;;;0.22;0.22;;;;;;;18.25;49.00;101633.63;5043706;28;20025;-42
2024/01/19 05:37:26;;;;;;;1.58;0.60;;;;;;;18.33;48.90;101637.88;5036795;28;20028;-43
2024/01/19 05:39:52;;;;;;;0.93;0.50;;;;;;;18.41;48.70;101636.75;5042294;28;20036;-42
2024/01/19 05:42:17;;;;;;;1.35;0.40;;;;;;;18.49;48.69;101641.88;5043946;28;20078;-44
2024/01/19 05:44:44;;;;;;;0.75;0.32;;;;;;;18.56;48.60;101638.09;5037627;28;20440;-44
2024/01/19 05:47:10;;;;;;;0.88;0.65;;;;;;;18.64;48.67;101648.59;5033674;28;20036;-44
2024/01/19 05:49:35;;;;;;;1.00;0.30;;;;;;;18.69;48.68;101645.78;5037249;28;20032;-46
2024/01/19 05:52:01;;;;;;;0.68;0.32;;;;;;;18.79;48.58;101663.31;5043341;28;20333;-45
2024/01/19 05:54:27;;;;;;;1.10;0.50;;;;;;;18.79;48.50;101663.31;5041935;28;20116;-44
2024/01/19 05:56:52;;;;;;;1.50;0.25;;;;;;;18.74;48.34;101664.41;5045095;28;20027;-42
2024/01/19 05:59:17;;;;;;;1.20;0.50;;;;;;;18.69;48.52;101684.13;5041978;28;20029;-41
2024/01/19 06:01:43;;;;;;;0.75;0.30;;;;;;;18.64;48.60;101685.16;5041352;28;20473;-44
2024/01/19 06:04:08;;;;;;;0.88;0.30;;;;;;;18.63;48.76;101688.75;5037745;28;20469;-44
2024/01/19 06:06:33;;;;;;;0.63;0.50;;;;;;;18.61;48.69;101690.63;5040276;28;20086;-44
2024/01/19 06:08:59;;;;;;;0.40;0.20;;;;;;;18.58;48.55;101694.25;5043840;28;20112;-43
2024/01/19 06:11:24;;;;;;;0.98;0.40;;;;;;;18.53;48.57;101685.47;5043756;28;20029;-43
2024/01/19 06:13:50;;;;;;;0.73;0.30;;;;;;;18.45;48.58;101684.78;5038899;28;20028;-44
2024/01/19 06:16:15;;;;;;;0.30;0.30;;;;;;;18.41;48.58;101686.66;5035796;28;20474;-46
2024/01/19 06:18:41;;;;;;;1.45;0.50;;;;;;;18.37;48.71;101687.69;5041147;28;20486;-44
2024/01/19 06:21:10;;;;;;;0.88;0.40;;;;;;;18.41;48.62;101700.03;5044567;28;20029;-42
2024/01/19 06:23:37;;;;;;;0.30;0.30;;;;;;;18.41;48.58;101703.63;5042450;28;20682;-44
2024/01/19 06:26:08;;;;;;;0.65;0.40;;;;;;;18.43;48.67;101704.44;5043836;28;20120;-45
2024/01/19 06:28:34;;;;;;;0.55;0.38;;;;;;;18.47;48.68;101717.75;5029765;28;20159;-43
2024/01/19 06:30:59;;;;;;;1.65;0.28;;;;;;;18.51;48.46;101724.78;5043523;28;20021;-44
2024/01/19 06:33:25;;;;;;;0.35;0.30;;;;;;;18.43;48.40;101735.66;5043378;28;20477;-44
2024/01/19 06:35:52;;;;;;;1.13;0.47;;;;;;;18.41;48.69;101727.69;5030817;28;20057;-45
2024/01/19 06:38:17;;;;;;;0.80;0.57;;;;;;;18.42;48.60;101732.09;5040296;28;20039;-43
2024/01/19 06:40:43;;;;;;;1.48;0.47;;;;;;;18.45;48.65;101738.28;5044344;28;20033;-43
2024/01/19 06:43:08;;;;;;;0.40;0.40;;;;;;;18.43;48.73;101735.66;5042399;28;20029;-43
2024/01/19 06:45:33;;;;;;;0.82;0.50;;;;;;;18.49;48.66;101739.97;5032430;28;20078;-44
2024/01/19 06:47:59;;;;;;;1.33;0.43;;;;;;;18.51;48.65;101738.16;5036075;28;20028;-46
2024/01/19 06:50:24;;;;;;;1.52;0.47;;;;;;;18.52;48.50;101751.47;5036755;28;20082;-45
2024/01/19 06:52:50;;;;;;;1.38;0.50;;;;;;;18.53;48.48;101749.66;5036922;28;20026;-45
2024/01/19 06:55:15;;;;;;;1.08;0.60;;;;;;;18.51;48.49;101756.88;5034758;28;20086;-42
2024/01/19 06:57:41;;;;;;;0.50;0.50;;;;;;;18.48;48.47;101749.81;5038931;28;20577;-42
2024/01/19 07:00:07;;;;;;;2.65;0.57;;;;;;;18.48;48.56;101762.28;5034967;28;20032;-42
2024/01/19 07:02:32;;;;;;;1.15;0.73;;;;;;;18.45;48.43;101765.91;5042309;28;20101;-42
2024/01/19 07:04:58;;;;;;;0.50;0.38;;;;;;;18.40;48.13;101765.16;5041547;28;20029;-43
2024/01/19 07:07:23;;;;;;;1.13;0.50;;;;;;;18.34;48.52;101768.00;5036418;28;20108;-42
2024/01/19 07:09:48;;;;;;;1.08;0.50;;;;;;;18.25;48.27;101772.66;5041442;28;20187;-43
2024/01/19 07:12:16;;;;;;;2.97;0.65;;;;;;;18.22;48.58;101777.19;5035910;28;20052;-45
2024/01/19 07:14:42;;;;;;;0.47;0.47;;;;;;;18.13;48.60;101773.84;5042843;28;20082;-43
2024/01/19 07:17:07;;;;;;;1.20;0.50;;;;;;;18.15;48.61;101782.69;5041490;28;20017;-42
2024/01/19 07:19:34;;;;;;;1.80;0.57;;;;;;;18.16;48.68;101778.25;5042915;28;20033;-44
2024/01/19 07:21:59;;;;;;;2.08;0.47;;;;;;;18.19;48.66;101783.50;5041573;28;20024;-41
2024/01/19 07:24:26;;;;;;;0.60;0.40;;;;;;;18.18;48.52;101788.91;5042860;28;20035;-46
2024/01/19 07:26:51;;;;;;;1.63;0.50;;;;;;;18.20;48.46;101787.94;5041955;28;20070;-46
2024/01/19 07:29:17;;;;;;;0.35;0.35;;;;;;;18.24;48.62;101794.09;5039554;28;20021;-43
2024/01/19 07:31:43;;;;;;;2.10;0.68;;;;;;;18.27;48.40;101808.25;5035901;28;20401;-46
2024/01/19 07:34:08;;;;;;;0.50;0.50;;;;;;;18.32;48.49;101808.13;5042058;28;20021;-43
2024/01/19 07:36:34;;;;;;;1.75;0.50;;;;;;;18.32;48.46;101810.81;5027607;28;20036;-43
2024/01/19 07:38:59;;;;;;;1.08;0.60;;;;;;;18.34;48.54;101816.13;5040558;28;20021;-44
2024/01/19 07:41:25;;;;;;;0.50;0.47;;;;;;;18.37;48.31;101816.94;5042805;28;20025;-43
2024/01/19 07:43:51;;;;;;;2.70;0.80;;;;;;;18.39;48.44;101824.94;5042877;28;20032;-43
2024/01/19 07:46:16;;;;;;;1.67;0.98;;;;;;;18.38;48.41;101825.84;5033549;28;20144;-48
2024/01/19 07:48:42;;;;;;;1.40;0.52;;;;;;;18.36;48.33;101831.22;5038566;28;20556;-41
2024/01/19 07:51:07;;;;;;;0.70;0.50;;;;;;;18.34;48.36;101833.06;5037636;28;20032;-42
2024/01/19 07:53:32;;;;;;;2.10;0.70;;;;;;;18.28;48.35;101839.44;5037556;28;20516;-42
2024/01/19 07:55:58;;;;;;;1.05;0.73;;;;;;;18.23;48.59;101833.31;5038208;28;20028;-42
2024/01/19 07:58:24;;;;;;;1.52;0.57;;;;;;;18.23;48.69;101835.97;5040266;28;20100;-42
2024/01/19 08:00:50;;;;;;;0.82;0.43;;;;;;;18.23;48.38;101835.97;5037222;28;20120;-43
2024/01/19 08:03:16;;;;;;;2.13;0.73;;;;;;;18.24;48.35;101843.09;5035858;28;20492;-42
2024/01/19 08:05:41;;;;;;;1.17;0.60;;;;;;;18.21;48.57;101847.63;5039277;28;20033;-43
2024/01/19 08:08:06;;;;;;;1.13;0.80;;;;;;;18.15;48.70;101862.91;5073785;28;20032;-41
2024/01/19 08:10:35;;;;;;;3.72;0.55;;;;;;;18.10;48.34;101862.13;5041823;28;20033;-43
2024/01/19 08:13:00;;;;;;;1.77;0.80;;;;;;;18.06;48.50;101871.16;5041377;28;20032;-45
2024/01/19 08:15:26;;;;;;;3.50;0.70;;;;;;;18.05;48.75;101860.44;5070576;28;20021;-44
2024/01/19 08:17:51;;;;;;;0.63;0.50;;;;;;;18.00;48.58;101863.22;5043179;28;20116;-44
2024/01/19 08:20:17;;;;;;;0.40;0.40;;;;;;;17.97;48.52;101865.97;5036779;28;20029;-43
2024/01/19 08:22:42;;;;;;;4.03;0.70;;;;;;;17.95;48.70;101871.34;5031766;28;20026;-44
2024/01/19 08:25:09;;;;;;;0.93;0.63;;;;;;;17.92;48.58;101871.44;5039801;28;20024;-44
2024/01/19 08:27:34;;;;;;;0.60;0.60;;;;;;;17.92;48.74;101871.44;5042491;28;20025;-46
2024/01/19 08:30:00;;;;;;;0.93;0.43;;;;;;;17.85;48.96;101886.69;5046117;28;20032;-45
2024/01/19 08:32:25;;;;;;;2.30;0.60;;;;;;;17.82;48.98;101891.25;5046165;28;20060;-44
2024/01/19 08:34:51;;;;;;;1.92;0.70;;;;;;;17.80;48.80;101893.03;5038935;28;20025;-44
2024/01/19 08:37:17;;;;;;;2.38;0.73;;;;;;;17.74;48.85;101892.25;5043409;28;20017;-43
2024/01/19 08:39:44;;;;;;;2.83;1.10;;;;;;;17.75;48.91;101887.81;5044020;28;20036;-46
2024/01/19 08:42:09;;;;;;;1.67;0.77;;;;;;;17.82;48.99;101893.91;5045658;28;20397;-44
2024/01/19 08:44:35;;;;;;;1.33;0.77;;;;;;;17.83;48.77;101895.66;5043652;28;20033;-44
2024/01/19 08:47:00;;;;;;;1.02;0.80;;;;;;;17.77;48.90;101892.22;5044578;28;20025;-44
2024/01/19 08:49:25;;;;;;;1.65;0.60;;;;;;;17.79;48.93;101891.28;5040066;28;20033;-43
2024/01/19 08:51:51;;;;;;;2.00;0.65;;;;;;;17.75;48.95;101896.72;5043934;28;20025;-43
2024/01/19 08:54:17;;;;;;;1.70;0.50;;;;;;;17.73;49.18;101898.53;5043714;28;20033;-43
2024/01/19 08:56:43;;;;;;;2.55;0.88;;;;;;;17.69;48.94;101896.81;5045173;28;20087;-45
2024/01/19 08:59:08;;;;;;;1.75;0.73;;;;;;;17.68;49.21;101904.88;5043763;28;20445;-44
2024/01/19 09:01:34;;;;;;;1.80;0.65;;;;;;;17.65;49.12;101897.81;5043509;28;20040;-45
2024/01/19 09:03:59;;;;;;;1.55;0.60;;;;;;;17.69;49.17;101907.50;5044804;28;20995;-43
2024/01/19 09:06:25;;;;;;;1.50;0.60;;;;;;;17.70;49.30;101911.97;5044632;28;20460;-44
2024/01/19 09:08:50;;;;;;;1.98;1.00;;;;;;;17.72;49.15;101910.13;5044756;28;20099;-42
2024/01/19 09:11:16;;;;;;;3.35;0.82;;;;;;;17.75;49.40;101917.19;5044507;28;20025;-45
2024/01/19 09:13:41;;;;;;;1.88;0.77;;;;;;;17.77;49.21;101913.59;5041935;28;20071;-42
2024/01/19 09:16:10;;;;;;;2.00;0.80;;;;;;;17.83;49.14;101925.06;5036933;28;20462;-41
2024/01/19 09:18:37;;;;;;;1.20;0.73;;;;;;;17.87;49.00;101914.25;5043764;28;20102;-42
2024/01/19 09:21:03;;;;;;;1.42;0.60;;;;;;;17.96;48.95;101923.00;5045785;28;20025;-42
2024/01/19 09:23:28;;;;;;;3.75;1.05;;;;;;;18.03;49.06;101922.84;5037315;28;20178;-46
2024/01/19 09:25:53;;;;;;;1.70;1.38;;;;;;;18.16;49.29;101928.81;5044918;28;20095;-50
2024/01/19 09:28:19;;;;;;;2.22;1.00;;;;;;;18.21;49.17;101922.50;5040438;28;20540;-43
2024/01/19 09:30:44;;;;;;;2.17;0.80;;;;;;;18.28;49.29;101929.47;5043998;28;20029;-47
2024/01/19 09:33:10;;;;;;;1.50;1.00;;;;;;;18.60;49.24;101926.97;5039946;28;20438;-39
2024/01/19 09:36:48;;;;;;;2.38;0.90;;;;;;;19.22;47.50;101926.31;5105644;27;20419;-36
2024/01/19 09:49:39;;;;;;;1.05;1.00;;;;;;;19.74;45.96;101947.25;5112672;27;20403;-33
2024/01/19 09:52:35;;;;;;;2.20;1.10;;;;;;;21.53;44.38;101947.88;5095201;28;20055;-50
2024/01/19 09:55:00;;;;;;;1.10;0.80;;;;;;;21.78;43.46;101952.38;5097688;28;20026;-38
2024/01/19 09:57:29;;;;;;;2.17;0.80;;;;;;;20.23;45.13;101953.91;5100501;28;20048;-36
2024/01/19 09:59:54;;;;;;;1.58;0.90;;;;;;;19.65;46.62;101957.34;5100613;28;20403;-41
2024/01/19 10:02:21;;;;;;;6.72;6.22;;;;;;;19.44;47.86;101955.19;5092519;28;20032;-51
2024/01/19 10:04:47;;;;;;;4.35;1.48;;;;;;;-147.63;100.00;58384.75;5091141;28;20028;-59
2024/01/19 10:07:13;;;;;;;2.25;1.65;;;;;;;19.60;nan;101960.16;5093899;28;20020;-39
2024/01/19 10:09:40;;;;;;;1.55;0.90;;;;;;;20.70;nan;101950.66;5087874;28;20071;-50
2024/01/19 10:12:06;;;;;;;1.73;0.70;;;;;;;24.62;nan;101947.50;5097389;28;20031;-60
2024/01/19 10:14:32;;;;;;;2.30;1.10;;;;;;;-147.63;100.00;58384.75;5094462;28;20418;-50
2024/01/19 10:16:57;;;;;;;6.32;1.17;;;;;;;23.87;nan;101960.91;5090663;28;20024;-50
2024/01/19 10:19:42;;;;;;;3.65;1.17;;;;;;;24.05;43.13;101969.97;5068400;27;20414;-32
2024/01/19 10:22:29;;;;;;;4.15;1.00;;;;;;;20.11;45.80;101977.50;5071449;28;20041;-33
2024/01/19 10:25:03;;;;;;;2.53;0.90;;;;;;;19.78;46.75;101985.56;5072490;28;20502;-32
2024/01/19 10:27:51;;;;;;;0.98;0.85;;;;;;;19.59;47.18;101991.41;5062665;28;20115;-33
2024/01/19 10:30:27;;;;;;;2.03;0.80;;;;;;;19.51;47.48;101990.75;5063084;28;20035;-35
2024/01/19 10:33:02;;;;;;;3.58;1.00;;;;;;;19.47;47.33;101994.44;5064743;28;20090;-36
2024/01/19 10:35:28;;;;;;;1.67;0.80;;;;;;;19.46;47.42;101992.69;5066526;28;20366;-35
2024/01/19 10:38:03;;;;;;;1.63;0.82;;;;;;;19.44;47.75;101992.72;5067599;28;20031;-35
2024/01/19 10:40:30;;;;;;;2.08;0.90;;;;;;;19.44;47.61;101997.22;5072160;28;20040;-35
2024/01/19 10:42:57;;;;;;;3.47;1.15;;;;;;;19.42;47.56;101999.03;5075616;28;20103;-35
2024/01/19 10:45:27;;;;;;;3.17;1.00;;;;;;;19.45;47.62;102001.63;5080846;28;20028;-33
2024/01/19 10:47:54;;;;;;;2.08;0.90;;;;;;;19.45;47.66;102007.84;5076287;28;20020;-38
2024/01/19 10:50:21;;;;;;;1.88;0.82;;;;;;;19.42;47.49;101999.03;5075978;28;20056;-34
2024/01/19 10:52:53;;;;;;;2.35;0.90;;;;;;;19.41;47.77;102005.31;5072588;28;20043;-34
2024/01/19 10:55:22;;;;;;;3.20;0.93;;;;;;;19.41;47.62;102011.56;5073717;28;20420;-34
2024/01/19 10:58:11;;;;;;;2.40;0.95;;;;;;;19.42;47.54;102015.09;5072135;28;20024;-36
2024/01/19 11:00:36;;;;;;;2.35;0.80;;;;;;;19.44;47.83;102013.28;5069659;28;20507;-35
2024/01/19 11:03:03;;;;;;;4.03;2.17;;;;;;;19.43;47.70;102008.81;5071224;28;20115;-43
2024/01/19 11:05:29;;;;;;;4.32;0.77;;;;;;;19.45;47.49;102007.84;5064450;28;20085;-42
2024/01/19 11:07:59;;;;;;;1.35;0.47;;;;;;;19.47;47.66;102015.88;5078745;28;20024;-36
2024/01/19 11:10:26;;;;;;;3.65;1.00;;;;;;;19.48;47.94;102020.28;5066308;28;20058;-34
2024/01/19 11:12:58;;;;;;;2.15;0.77;;;;;;;21.18;48.73;102013.56;5068121;28;20039;-64
2024/01/19 11:17:12;;;;;;;5.97;1.02;;;;;;;-147.63;100.00;58384.75;5048955;27;1292566;-46
2024/01/19 11:19:38;;;;;;;2.10;0.63;;;;;;;-147.63;100.00;58384.75;5086923;28;20449;-45
2024/01/19 11:22:05;;;;;;;2.97;0.90;;;;;;;-147.63;100.00;58384.75;5093128;28;20035;-47
2024/01/19 11:24:34;;;;;;;1.83;0.85;;;;;;;-147.63;100.00;58384.75;5093771;28;20030;-46
2024/01/19 11:27:06;;;;;;;4.35;1.17;;;;;;;-147.63;100.00;58384.75;5099135;28;20095;-48
2024/01/19 11:29:35;;;;;;;2.75;0.68;;;;;;;-147.63;100.00;58384.75;5095275;28;20031;-49
2024/01/19 11:32:01;;;;;;;1.25;0.80;;;;;;;-147.63;100.00;58384.75;5079981;28;20027;-51
2024/01/19 11:34:41;;;;;;;3.55;1.25;;;;;;;-147.63;100.00;58384.75;5093267;28;20514;-48